Time;durP1;ratioP1;P1;durP2;ratioP2;P2;SDS_P1;SDS_P2;PMS_P1;PMS_P2;Temp;Humidity;BMP_temperature;BMP_pressure;BME280_temperature;BME280_humidity;BME280_pressure;Samples;Min_cycle;Max_cycle;Signal;HPM_P1;HPM_P2
2023/08/11 00:02:22;;;;;;;14.50;12.23;;;16.30;99.90;;;;;;5069399;28;20399;-63
2023/08/11 00:04:50;;;;;;;15.70;12.20;;;16.30;99.90;;;;;;5071276;28;20036;-63
2023/08/11 00:07:16;;;;;;;15.40;12.30;;;16.30;99.90;;;;;;5069866;28;20032;-63
2023/08/11 00:09:42;;;;;;;14.88;12.65;;;16.30;99.90;;;;;;5070821;28;20089;-63
2023/08/11 00:12:07;;;;;;;15.07;12.48;;;16.20;99.90;;;;;;5067829;28;20040;-63
2023/08/11 00:14:33;;;;;;;17.13;13.50;;;16.20;99.90;;;;;;5069802;28;20071;-63
2023/08/11 00:16:59;;;;;;;16.23;14.45;;;16.30;99.90;;;;;;5061899;28;20048;-63
2023/08/11 00:19:25;;;;;;;20.08;13.60;;;16.20;99.90;;;;;;5071067;28;20458;-63
2023/08/11 00:21:51;;;;;;;17.60;13.40;;;16.20;99.90;;;;;;5070195;28;20445;-63
2023/08/11 00:24:17;;;;;;;16.65;12.68;;;16.10;99.90;;;;;;5086892;22;20048;-64
2023/08/11 00:26:42;;;;;;;17.63;14.38;;;16.10;99.90;;;;;;5069633;28;20375;-64
2023/08/11 00:29:08;;;;;;;16.52;13.10;;;16.10;99.90;;;;;;5069333;28;20110;-64
2023/08/11 00:31:35;;;;;;;16.02;14.30;;;16.10;99.90;;;;;;5063917;28;20037;-64
2023/08/11 00:34:01;;;;;;;17.10;13.98;;;16.00;99.90;;;;;;5070784;28;20064;-64
2023/08/11 00:36:26;;;;;;;15.57;13.68;;;16.00;99.90;;;;;;5069637;28;20064;-64
2023/08/11 00:38:52;;;;;;;18.02;14.27;;;16.00;99.90;;;;;;5070853;28;20037;-64
2023/08/11 00:41:17;;;;;;;16.63;13.70;;;15.90;99.90;;;;;;5071160;28;20116;-64
2023/08/11 00:43:43;;;;;;;15.95;13.82;;;15.90;99.90;;;;;;5074457;28;20032;-64
2023/08/11 00:46:11;;;;;;;14.50;12.98;;;15.90;99.90;;;;;;5073957;28;20035;-64
2023/08/11 00:48:50;;;;;;;17.75;14.32;;;15.90;99.90;;;;;;5056249;28;20086;-64
2023/08/11 00:51:18;;;;;;;17.58;15.52;;;15.90;99.90;;;;;;5065696;28;20040;-64
2023/08/11 00:53:48;;;;;;;18.10;14.52;;;15.90;99.90;;;;;;5073565;28;20043;-64
2023/08/11 00:56:13;;;;;;;15.02;12.75;;;15.90;99.90;;;;;;5072856;28;20036;-64
2023/08/11 00:58:41;;;;;;;15.10;12.85;;;15.90;99.90;;;;;;5056539;28;20039;-64
2023/08/11 01:01:06;;;;;;;16.63;13.30;;;15.90;99.90;;;;;;5055880;28;20104;-64
2023/08/11 01:03:32;;;;;;;18.40;13.45;;;15.90;99.90;;;;;;5072684;28;20105;-64
2023/08/11 01:06:21;;;;;;;13.23;11.52;;;15.90;99.90;;;;;;5073004;28;20028;-64
2023/08/11 01:09:03;;;;;;;15.15;12.82;;;15.90;99.90;;;;;;5074134;28;20043;-64
2023/08/11 01:11:39;;;;;;;14.68;12.68;;;15.90;99.90;;;;;;5072819;28;20528;-64
2023/08/11 01:14:22;;;;;;;14.25;12.20;;;15.80;99.90;;;;;;5073552;28;20044;-64
2023/08/11 01:16:51;;;;;;;17.17;13.38;;;15.80;99.90;;;;;;5073797;28;20037;-64
2023/08/11 01:19:34;;;;;;;15.60;13.48;;;15.80;99.90;;;;;;5072871;28;20036;-64
2023/08/11 01:22:01;;;;;;;14.82;12.63;;;15.80;99.90;;;;;;5071952;28;20044;-64
2023/08/11 01:24:28;;;;;;;14.70;13.10;;;15.80;99.90;;;;;;5073378;28;20470;-64
2023/08/11 01:26:54;;;;;;;19.02;14.30;;;15.70;99.90;;;;;;5072334;28;20072;-63
2023/08/11 01:29:20;;;;;;;14.98;12.70;;;15.80;99.90;;;;;;5073034;28;20036;-64
2023/08/11 01:31:45;;;;;;;16.08;12.68;;;15.80;99.90;;;;;;5071956;28;20036;-64
2023/08/11 01:34:11;;;;;;;14.93;12.57;;;15.80;99.90;;;;;;5072730;28;20325;-64
2023/08/11 01:36:40;;;;;;;14.32;12.82;;;15.80;99.90;;;;;;5073475;28;20076;-64
2023/08/11 01:39:06;;;;;;;16.60;12.80;;;15.80;99.90;;;;;;5073778;28;20036;-64
2023/08/11 01:41:32;;;;;;;15.63;11.43;;;15.80;99.90;;;;;;5070614;28;20040;-65
2023/08/11 01:43:58;;;;;;;14.27;11.82;;;15.80;99.90;;;;;;5069375;28;20033;-65
2023/08/11 01:46:27;;;;;;;15.68;11.30;;;15.70;99.90;;;;;;5071835;28;20555;-65
2023/08/11 01:48:55;;;;;;;14.93;11.38;;;15.80;99.90;;;;;;5071726;28;20032;-65
2023/08/11 01:51:22;;;;;;;12.55;11.10;;;15.70;99.90;;;;;;5056046;28;20068;-65
2023/08/11 01:53:48;;;;;;;13.10;10.52;;;15.70;99.90;;;;;;5070956;28;20029;-65
2023/08/11 01:56:15;;;;;;;12.73;11.02;;;15.70;99.90;;;;;;5067792;28;20039;-65
2023/08/11 01:58:40;;;;;;;11.85;10.40;;;15.70;99.90;;;;;;5071885;28;20067;-65
2023/08/11 02:01:07;;;;;;;12.60;10.52;;;15.70;99.90;;;;;;5070504;28;20060;-65
2023/08/11 02:03:33;;;;;;;12.43;10.80;;;15.70;99.90;;;;;;5070454;28;20036;-64
2023/08/11 02:05:59;;;;;;;15.80;11.02;;;15.70;99.90;;;;;;5063783;28;20040;-65
2023/08/11 02:08:25;;;;;;;14.70;11.48;;;15.70;99.90;;;;;;5071444;28;20406;-65
2023/08/11 02:10:53;;;;;;;13.23;10.90;;;15.70;99.90;;;;;;5072365;28;20048;-65
2023/08/11 02:13:19;;;;;;;12.18;10.88;;;15.70;99.90;;;;;;5071579;28;20048;-65
2023/08/11 02:15:45;;;;;;;14.32;11.30;;;15.70;99.90;;;;;;5072840;28;20115;-65
2023/08/11 02:18:10;;;;;;;14.27;11.10;;;15.60;99.90;;;;;;5072559;28;20482;-64
2023/08/11 02:20:36;;;;;;;12.35;11.02;;;15.60;99.90;;;;;;5071454;28;20079;-65
2023/08/11 02:23:02;;;;;;;13.50;11.13;;;15.60;99.90;;;;;;5072891;28;20045;-65
2023/08/11 02:25:28;;;;;;;12.68;10.77;;;15.60;99.90;;;;;;5072555;28;20040;-64
2023/08/11 02:27:54;;;;;;;10.85;9.73;;;15.60;99.90;;;;;;5072165;28;20040;-64
2023/08/11 02:30:21;;;;;;;11.95;10.75;;;15.60;99.90;;;;;;5054895;28;20067;-64
2023/08/11 02:32:47;;;;;;;11.98;10.77;;;15.60;99.90;;;;;;5068065;28;20158;-65
2023/08/11 02:35:14;;;;;;;12.05;10.20;;;15.50;99.90;;;;;;5070294;28;20468;-65
2023/08/11 02:37:41;;;;;;;13.60;10.57;;;15.50;99.90;;;;;;5071365;28;20151;-65
2023/08/11 02:40:10;;;;;;;14.80;10.73;;;15.50;99.90;;;;;;5072238;28;20513;-64
2023/08/11 02:42:43;;;;;;;11.60;10.30;;;15.50;99.90;;;;;;5065948;28;20047;-64
2023/08/11 02:45:10;;;;;;;12.35;10.93;;;15.50;99.90;;;;;;5071457;28;20043;-65
2023/08/11 02:47:36;;;;;;;12.75;10.48;;;15.50;99.90;;;;;;5052398;28;20054;-65
2023/08/11 02:50:04;;;;;;;14.80;10.70;;;15.50;99.90;;;;;;5071996;28;20123;-64
2023/08/11 02:52:30;;;;;;;12.15;9.85;;;15.50;99.90;;;;;;5070724;28;20032;-64
2023/08/11 02:54:55;;;;;;;13.93;10.07;;;15.50;99.90;;;;;;5071923;28;20067;-65
2023/08/11 02:57:21;;;;;;;10.98;9.48;;;15.40;99.90;;;;;;5070791;28;20033;-65
2023/08/11 02:59:49;;;;;;;13.38;9.95;;;15.40;99.90;;;;;;5070795;28;20035;-65
2023/08/11 03:02:16;;;;;;;15.32;9.98;;;15.40;99.90;;;;;;5063308;28;20037;-64
2023/08/11 03:04:42;;;;;;;11.48;9.63;;;15.30;99.90;;;;;;5071517;28;20039;-64
2023/08/11 03:07:09;;;;;;;11.63;10.43;;;15.30;99.90;;;;;;5070799;28;20390;-65
2023/08/11 03:09:35;;;;;;;12.18;10.27;;;15.30;99.90;;;;;;5070324;28;20035;-65
2023/08/11 03:12:01;;;;;;;14.10;10.35;;;15.30;99.90;;;;;;5072286;28;20546;-65
2023/08/11 03:14:27;;;;;;;11.25;9.93;;;15.30;99.90;;;;;;5071090;28;20226;-65
2023/08/11 03:16:53;;;;;;;12.27;9.95;;;15.30;99.90;;;;;;5070727;28;20044;-64
2023/08/11 03:19:19;;;;;;;11.25;9.93;;;15.20;99.90;;;;;;5071653;28;20037;-65
2023/08/11 03:21:45;;;;;;;13.50;10.18;;;15.30;99.90;;;;;;5071495;28;20055;-65
2023/08/11 03:24:10;;;;;;;11.65;10.30;;;15.30;99.90;;;;;;5070442;28;20032;-65
2023/08/11 03:26:36;;;;;;;13.32;9.95;;;15.20;99.90;;;;;;5070994;28;20372;-65
2023/08/11 03:29:02;;;;;;;14.95;10.93;;;15.20;99.90;;;;;;5070055;28;20510;-65
2023/08/11 03:31:28;;;;;;;13.68;10.02;;;15.20;99.90;;;;;;5071659;28;20034;-65
2023/08/11 03:33:54;;;;;;;14.18;10.63;;;15.20;99.90;;;;;;5071728;28;20064;-64
2023/08/11 03:36:20;;;;;;;11.90;10.35;;;15.20;99.90;;;;;;5071085;28;20482;-65
2023/08/11 03:38:45;;;;;;;11.10;9.43;;;15.20;99.90;;;;;;5070999;28;20032;-64
2023/08/11 03:41:11;;;;;;;11.90;9.50;;;15.20;99.90;;;;;;5071324;28;20029;-64
2023/08/11 03:43:37;;;;;;;11.10;9.90;;;15.20;99.90;;;;;;5071626;28;20032;-64
2023/08/11 03:46:03;;;;;;;10.52;9.43;;;15.20;99.90;;;;;;5070230;28;20517;-65
2023/08/11 03:48:29;;;;;;;14.60;10.93;;;15.20;99.90;;;;;;5070214;28;20082;-65
2023/08/11 03:51:02;;;;;;;12.25;9.20;;;15.20;99.90;;;;;;5069831;28;20044;-65
2023/08/11 03:53:29;;;;;;;12.23;9.70;;;15.10;99.90;;;;;;5070638;28;20483;-65
2023/08/11 03:55:54;;;;;;;10.88;9.52;;;15.10;99.90;;;;;;5068470;28;20440;-65
2023/08/11 03:58:21;;;;;;;14.57;9.90;;;15.10;99.90;;;;;;5069892;28;20036;-65
2023/08/11 04:00:47;;;;;;;11.57;9.55;;;15.10;99.90;;;;;;5058433;28;20035;-64
2023/08/11 04:03:14;;;;;;;11.43;10.23;;;15.10;99.90;;;;;;5060874;28;20044;-64
2023/08/11 04:05:44;;;;;;;10.80;8.65;;;15.10;99.90;;;;;;5050251;28;20076;-65
2023/08/11 04:08:09;;;;;;;13.32;9.73;;;15.00;99.90;;;;;;5067823;28;20083;-65
2023/08/11 04:10:35;;;;;;;12.82;9.73;;;15.00;99.90;;;;;;5070340;28;20036;-65
2023/08/11 04:13:01;;;;;;;11.90;9.95;;;15.10;99.90;;;;;;5070969;28;20521;-65
2023/08/11 04:15:27;;;;;;;11.55;9.60;;;15.00;99.90;;;;;;5070856;28;20219;-65
2023/08/11 04:17:53;;;;;;;10.93;9.40;;;15.00;99.90;;;;;;5073415;28;20040;-65
2023/08/11 04:20:18;;;;;;;11.18;9.40;;;14.90;99.90;;;;;;5074390;28;20025;-65
2023/08/11 04:22:44;;;;;;;10.80;9.50;;;15.00;99.90;;;;;;5074788;28;20025;-65
2023/08/11 04:25:11;;;;;;;12.00;9.63;;;15.00;99.90;;;;;;5073785;28;20033;-65
2023/08/11 04:27:39;;;;;;;11.98;9.80;;;15.00;99.90;;;;;;5073455;28;20043;-65
2023/08/11 04:30:05;;;;;;;13.35;10.30;;;15.00;99.90;;;;;;5071952;28;20112;-64
2023/08/11 04:32:31;;;;;;;12.35;9.27;;;15.00;99.90;;;;;;5073867;28;20039;-64
2023/08/11 04:34:57;;;;;;;12.60;9.77;;;15.00;99.90;;;;;;5072609;28;20033;-65
2023/08/11 04:37:22;;;;;;;13.32;9.70;;;15.10;99.90;;;;;;5072424;28;20033;-65
2023/08/11 04:39:48;;;;;;;14.80;10.63;;;15.10;99.90;;;;;;5074441;28;20036;-65
2023/08/11 04:42:13;;;;;;;16.48;11.43;;;15.10;99.90;;;;;;5072725;28;20028;-65
2023/08/11 04:44:39;;;;;;;14.02;10.48;;;15.10;99.90;;;;;;5074459;28;20478;-65
2023/08/11 04:47:05;;;;;;;13.85;10.30;;;15.10;99.90;;;;;;5070358;28;20036;-65
2023/08/11 04:49:32;;;;;;;15.07;11.18;;;15.10;99.90;;;;;;5069243;28;20036;-64
2023/08/11 04:51:58;;;;;;;12.70;10.65;;;15.10;99.90;;;;;;5071247;28;20375;-64
2023/08/11 04:54:24;;;;;;;15.35;10.50;;;15.10;99.90;;;;;;5074260;28;20043;-65
2023/08/11 04:56:50;;;;;;;14.60;10.32;;;15.20;99.90;;;;;;5073770;28;20053;-65
2023/08/11 04:59:17;;;;;;;14.90;10.73;;;15.20;99.90;;;;;;5058258;28;20367;-65
2023/08/11 05:01:43;;;;;;;12.90;10.00;;;15.10;99.90;;;;;;5072211;28;20033;-65
2023/08/11 05:04:09;;;;;;;13.52;10.45;;;15.20;99.90;;;;;;5073069;28;20457;-65
2023/08/11 05:06:35;;;;;;;14.35;10.05;;;15.20;99.90;;;;;;5071746;28;20028;-65
2023/08/11 05:09:02;;;;;;;14.27;10.63;;;15.20;99.90;;;;;;5074646;28;20075;-65
2023/08/11 05:11:28;;;;;;;12.70;9.93;;;15.30;99.90;;;;;;5064861;28;20394;-65
2023/08/11 05:13:54;;;;;;;13.30;9.80;;;15.30;99.90;;;;;;5073935;28;20094;-64
2023/08/11 05:16:20;;;;;;;14.52;10.57;;;15.40;99.90;;;;;;5071588;28;20044;-65
2023/08/11 05:18:46;;;;;;;14.10;10.30;;;15.40;99.90;;;;;;5070495;28;20037;-64
2023/08/11 05:21:13;;;;;;;13.98;9.55;;;15.40;99.90;;;;;;5071433;28;20071;-65
2023/08/11 05:23:39;;;;;;;12.70;9.90;;;15.40;99.90;;;;;;5056112;28;20045;-65
2023/08/11 05:26:05;;;;;;;13.75;9.85;;;15.50;99.90;;;;;;5064607;28;20394;-65
2023/08/11 05:28:30;;;;;;;11.65;9.75;;;15.50;99.90;;;;;;5066947;28;20036;-65
2023/08/11 05:30:56;;;;;;;15.13;11.13;;;15.60;99.90;;;;;;5057334;28;20041;-65
2023/08/11 05:33:23;;;;;;;15.05;10.00;;;15.60;99.90;;;;;;5056123;28;20063;-65
2023/08/11 05:35:49;;;;;;;13.18;10.10;;;15.60;99.90;;;;;;5053588;28;20032;-65
2023/08/11 05:38:14;;;;;;;15.70;9.85;;;15.70;99.90;;;;;;5072293;28;20525;-65
2023/08/11 05:40:41;;;;;;;12.93;10.10;;;15.80;99.90;;;;;;5072737;28;20028;-65
2023/08/11 05:43:07;;;;;;;14.20;10.27;;;15.80;99.90;;;;;;5073849;28;20041;-65
2023/08/11 05:45:33;;;;;;;14.45;10.40;;;15.80;99.90;;;;;;5073721;28;20597;-65
2023/08/11 05:47:59;;;;;;;14.07;10.45;;;15.80;99.90;;;;;;5075525;28;20056;-65
2023/08/11 05:50:25;;;;;;;13.75;9.77;;;15.90;99.90;;;;;;5073246;28;20450;-66
2023/08/11 05:52:50;;;;;;;14.45;10.43;;;15.90;99.90;;;;;;5073673;28;20208;-65
2023/08/11 05:55:16;;;;;;;13.77;10.02;;;16.00;99.90;;;;;;5072951;28;20112;-66
2023/08/11 05:57:42;;;;;;;13.10;9.35;;;16.00;99.90;;;;;;5071929;28;20418;-65
2023/08/11 06:00:09;;;;;;;10.70;9.52;;;16.10;99.90;;;;;;5073815;28;20033;-66
2023/08/11 06:02:34;;;;;;;13.70;9.27;;;16.10;99.90;;;;;;5073605;28;20036;-65
2023/08/11 06:05:00;;;;;;;12.27;9.32;;;16.20;99.90;;;;;;5072188;28;20032;-65
2023/08/11 06:07:25;;;;;;;13.48;10.00;;;16.20;99.90;;;;;;5071910;28;20444;-65
2023/08/11 06:09:51;;;;;;;14.50;9.40;;;16.30;99.90;;;;;;5073076;28;20085;-65
2023/08/11 06:12:17;;;;;;;14.50;9.88;;;16.40;99.90;;;;;;5071904;28;20040;-69
2023/08/11 06:14:42;;;;;;;10.60;8.43;;;16.40;99.90;;;;;;5073215;28;20075;-67
2023/08/11 06:17:08;;;;;;;11.40;8.60;;;16.50;99.90;;;;;;5072467;28;20123;-67
2023/08/11 06:19:34;;;;;;;12.55;9.10;;;16.60;99.90;;;;;;5063264;28;20071;-67
2023/08/11 06:21:59;;;;;;;11.90;9.07;;;16.70;99.90;;;;;;5073084;28;20047;-67
2023/08/11 06:26:55;;;;;;;14.70;9.00;;;16.90;99.90;;;;;;5048960;28;20453;-67
2023/08/11 06:29:20;;;;;;;9.73;8.43;;;17.10;99.90;;;;;;5034823;28;20037;-67
2023/08/11 06:31:46;;;;;;;10.52;8.40;;;17.20;99.90;;;;;;5021778;28;20514;-67
2023/08/11 06:34:12;;;;;;;11.10;8.23;;;17.30;99.90;;;;;;5052337;28;20029;-67
2023/08/11 06:36:38;;;;;;;9.57;8.50;;;17.40;99.90;;;;;;5052255;28;20128;-67
2023/08/11 06:39:04;;;;;;;11.95;8.68;;;17.50;99.90;;;;;;5041847;28;20129;-67
2023/08/11 06:41:29;;;;;;;11.82;8.55;;;17.60;99.90;;;;;;5029578;28;20124;-67
2023/08/11 06:43:56;;;;;;;10.35;8.40;;;17.70;99.90;;;;;;5012159;28;20041;-67
2023/08/11 06:46:22;;;;;;;10.93;7.72;;;17.80;99.90;;;;;;5018852;28;20076;-67
2023/08/11 06:48:47;;;;;;;9.93;7.95;;;17.90;99.90;;;;;;5026994;28;20068;-67
2023/08/11 06:51:13;;;;;;;12.75;8.52;;;18.00;99.90;;;;;;5034421;28;20029;-67
2023/08/11 06:53:38;;;;;;;11.73;8.63;;;18.10;99.90;;;;;;5032106;28;20053;-67
2023/08/11 06:56:04;;;;;;;10.60;7.75;;;18.10;99.90;;;;;;5024841;28;20034;-67
2023/08/11 06:58:29;;;;;;;11.55;8.52;;;18.20;99.90;;;;;;5030191;28;20384;-67
2023/08/11 07:00:56;;;;;;;10.20;7.65;;;18.30;99.90;;;;;;5036975;28;20033;-67
2023/08/11 07:03:21;;;;;;;10.10;7.53;;;18.50;99.90;;;;;;5039566;28;20029;-67
2023/08/11 07:05:51;;;;;;;10.35;7.82;;;18.60;99.90;;;;;;5052244;28;20511;-67
2023/08/11 07:08:17;;;;;;;9.90;7.80;;;18.70;99.90;;;;;;5016031;28;20073;-68
2023/08/11 07:10:43;;;;;;;11.80;7.88;;;18.80;99.90;;;;;;5036558;28;20163;-67
2023/08/11 07:13:09;;;;;;;12.38;7.75;;;18.90;99.90;;;;;;5031884;28;20124;-67
2023/08/11 07:15:34;;;;;;;10.50;8.02;;;19.00;99.90;;;;;;5038888;28;20072;-67
2023/08/11 07:18:00;;;;;;;11.18;7.40;;;19.20;99.90;;;;;;5043294;28;20071;-67
2023/08/11 07:20:25;;;;;;;10.38;7.35;;;19.30;99.90;;;;;;5040030;28;20527;-67
2023/08/11 07:22:51;;;;;;;13.55;7.97;;;19.40;99.90;;;;;;5033568;28;20045;-68
2023/08/11 07:25:17;;;;;;;9.00;7.40;;;19.60;99.90;;;;;;5030363;28;20434;-67
2023/08/11 07:27:43;;;;;;;11.43;7.95;;;19.70;99.90;;;;;;5031744;28;20044;-67
2023/08/11 07:30:09;;;;;;;8.82;7.55;;;19.80;99.90;;;;;;5020659;28;20061;-67
2023/08/11 07:32:35;;;;;;;9.38;7.75;;;19.90;99.90;;;;;;5013850;28;20597;-67
2023/08/11 07:35:01;;;;;;;8.90;7.70;;;20.10;99.90;;;;;;5040210;28;20116;-67
2023/08/11 07:37:27;;;;;;;12.88;6.85;;;20.20;99.90;;;;;;5031063;28;20052;-67
2023/08/11 07:39:52;;;;;;;7.85;6.38;;;20.30;99.90;;;;;;5036111;28;20760;-67
2023/08/11 07:42:18;;;;;;;8.43;6.93;;;20.40;99.90;;;;;;5027910;28;20112;-67
2023/08/11 07:44:43;;;;;;;7.63;6.45;;;20.60;99.90;;;;;;5024687;28;20036;-68
2023/08/11 07:47:09;;;;;;;7.90;5.97;;;20.60;99.90;;;;;;5020136;28;20448;-67
2023/08/11 07:49:35;;;;;;;9.75;6.10;;;20.70;99.90;;;;;;5019264;28;20124;-68
2023/08/11 07:52:00;;;;;;;7.80;6.00;;;20.80;99.90;;;;;;5038959;28;20132;-67
2023/08/11 07:54:26;;;;;;;9.77;6.18;;;20.90;99.90;;;;;;5029188;28;20056;-67
2023/08/11 07:56:52;;;;;;;9.18;5.88;;;21.00;99.90;;;;;;5031578;28;20475;-67
2023/08/11 07:59:18;;;;;;;8.85;5.40;;;21.10;99.90;;;;;;5028921;28;20088;-68
2023/08/11 08:01:43;;;;;;;8.90;5.78;;;21.20;99.90;;;;;;5030801;28;20032;-67
2023/08/11 08:04:10;;;;;;;6.80;5.05;;;21.40;99.90;;;;;;5030436;28;20091;-67
2023/08/11 08:06:43;;;;;;;5.72;5.00;;;21.50;99.90;;;;;;5022662;28;20045;-67
2023/08/11 08:09:11;;;;;;;6.60;5.25;;;21.60;99.90;;;;;;5028797;28;20419;-67
2023/08/11 08:11:43;;;;;;;8.95;5.22;;;21.70;99.90;;;;;;5034224;28;20033;-67
2023/08/11 08:14:10;;;;;;;7.82;5.10;;;21.90;99.90;;;;;;5046675;28;20554;-68
2023/08/11 08:16:44;;;;;;;6.68;4.80;;;21.90;99.90;;;;;;5018446;28;20057;-68
2023/08/11 08:19:11;;;;;;;6.38;5.07;;;22.00;99.90;;;;;;5030725;28;20553;-68
2023/08/11 08:21:37;;;;;;;5.75;4.75;;;22.10;99.90;;;;;;5029988;28;20030;-68
2023/08/11 08:24:04;;;;;;;5.57;4.22;;;22.10;99.90;;;;;;5028417;28;21412;-68
2023/08/11 08:26:31;;;;;;;7.40;4.53;;;22.20;99.90;;;;;;4997669;28;20113;-69
2023/08/11 08:28:56;;;;;;;7.30;4.78;;;22.40;99.90;;;;;;5023302;28;20407;-70
2023/08/11 08:31:22;;;;;;;7.18;4.30;;;22.40;99.90;;;;;;5014417;28;20037;-69
2023/08/11 08:33:48;;;;;;;7.57;4.38;;;22.60;99.90;;;;;;5028576;28;20029;-70
2023/08/11 08:36:13;;;;;;;6.22;4.68;;;22.60;99.90;;;;;;5030071;28;20076;-70
2023/08/11 08:38:39;;;;;;;7.00;4.93;;;22.70;99.90;;;;;;5022676;28;20041;-70
2023/08/11 08:41:08;;;;;;;7.35;4.50;;;22.90;99.90;;;;;;5009546;28;20124;-69
2023/08/11 08:43:35;;;;;;;5.60;4.80;;;23.00;99.90;;;;;;5028246;28;20036;-69
2023/08/11 08:46:06;;;;;;;6.30;4.38;;;23.10;99.90;;;;;;5026265;28;20492;-69
2023/08/11 08:49:00;;;;;;;6.25;4.35;;;23.20;99.90;;;;;;5016437;28;20429;-69
2023/08/11 08:51:27;;;;;;;6.93;3.70;;;23.30;99.90;;;;;;5030045;28;20548;-70
2023/08/11 08:53:53;;;;;;;4.82;3.85;;;23.40;99.90;;;;;;5008724;28;20125;-69
2023/08/11 08:56:19;;;;;;;7.00;3.80;;;23.50;99.90;;;;;;5023161;28;20121;-69
2023/08/11 08:58:44;;;;;;;4.82;3.55;;;23.60;99.90;;;;;;5027098;28;20507;-70
2023/08/11 09:01:11;;;;;;;5.85;3.95;;;23.70;99.90;;;;;;5026933;28;20037;-69
2023/08/11 09:03:37;;;;;;;5.55;3.40;;;23.80;99.90;;;;;;5031617;28;20480;-69
2023/08/11 09:06:05;;;;;;;5.05;3.30;;;23.80;99.90;;;;;;5034811;28;20033;-69
2023/08/11 09:08:38;;;;;;;3.85;2.92;;;23.90;99.90;;;;;;5013914;28;20068;-69
2023/08/11 09:11:04;;;;;;;4.07;2.72;;;24.00;99.90;;;;;;5030235;28;20046;-69
2023/08/11 09:13:31;;;;;;;3.38;2.85;;;24.20;99.90;;;;;;5035280;28;20416;-71
2023/08/11 09:15:57;;;;;;;4.55;2.95;;;24.30;99.90;;;;;;5036661;28;20552;-70
2023/08/11 09:18:23;;;;;;;6.03;3.13;;;24.30;99.90;;;;;;5030853;28;20034;-70
2023/08/11 09:20:49;;;;;;;4.93;3.20;;;24.40;99.90;;;;;;5033511;28;20136;-70
2023/08/11 09:23:18;;;;;;;4.63;3.13;;;24.40;99.90;;;;;;5033340;28;20045;-70
2023/08/11 09:25:45;;;;;;;8.13;3.00;;;24.50;99.90;;;;;;5004917;28;20068;-70
2023/08/11 09:28:11;;;;;;;4.63;3.20;;;24.60;99.90;;;;;;5033406;28;20054;-70
2023/08/11 09:30:38;;;;;;;5.28;2.95;;;24.70;99.90;;;;;;5033516;28;20061;-70
2023/08/11 09:33:07;;;;;;;5.82;3.17;;;24.80;99.90;;;;;;5034071;28;20107;-70
2023/08/11 09:35:34;;;;;;;3.90;3.10;;;24.80;99.90;;;;;;5013393;28;20061;-70
2023/08/11 09:38:00;;;;;;;5.38;3.38;;;24.80;99.90;;;;;;5009912;28;20056;-70
2023/08/11 09:40:26;;;;;;;5.00;3.53;;;24.90;99.90;;;;;;5036065;28;20411;-69
2023/08/11 09:42:56;;;;;;;8.43;3.70;;;24.90;99.90;;;;;;5036154;28;20084;-70
2023/08/11 09:45:22;;;;;;;7.95;3.00;;;25.00;99.90;;;;;;5019516;28;20041;-70
2023/08/11 09:47:48;;;;;;;9.63;3.40;;;25.10;99.90;;;;;;5018930;28;20503;-69
2023/08/11 09:50:14;;;;;;;4.72;2.90;;;25.20;99.90;;;;;;5013217;28;20064;-69
2023/08/11 09:52:41;;;;;;;6.13;3.60;;;25.20;99.90;;;;;;5027313;28;20041;-70
2023/08/11 09:55:09;;;;;;;4.78;3.20;;;25.30;99.90;;;;;;5031555;28;20059;-70
2023/08/11 09:57:36;;;;;;;5.40;3.33;;;25.40;99.90;;;;;;4995796;28;20037;-69
2023/08/11 10:00:04;;;;;;;8.00;3.25;;;25.50;99.90;;;;;;5031732;28;20056;-65
2023/08/11 10:02:31;;;;;;;5.15;2.83;;;25.60;99.90;;;;;;5027453;28;20038;-65
2023/08/11 10:05:03;;;;;;;6.10;3.20;;;25.60;99.90;;;;;;5006777;28;20061;-65
2023/08/11 10:07:39;;;;;;;6.30;3.47;;;25.60;99.90;;;;;;5022522;28;20037;-64
2023/08/11 10:10:10;;;;;;;4.95;3.38;;;25.50;99.90;;;;;;5016058;28;20045;-65
2023/08/11 10:12:40;;;;;;;3.83;3.10;;;25.40;99.90;;;;;;5032370;28;20045;-65
2023/08/11 10:15:08;;;;;;;6.35;3.28;;;25.40;99.90;;;;;;5031318;28;20088;-65
2023/08/11 10:17:34;;;;;;;4.90;3.03;;;25.40;99.90;;;;;;5030652;28;20047;-65
2023/08/11 10:20:04;;;;;;;6.40;3.42;;;25.50;99.90;;;;;;5032883;28;20052;-64
2023/08/11 10:22:31;;;;;;;6.60;3.35;;;25.60;99.90;;;;;;5032353;28;20047;-64
2023/08/11 10:24:57;;;;;;;5.78;2.95;;;25.70;99.90;;;;;;5023406;28;20044;-65
2023/08/11 10:27:23;;;;;;;6.50;3.42;;;25.90;99.90;;;;;;5033347;28;20033;-65
2023/08/11 10:29:50;;;;;;;5.88;3.65;;;25.90;99.90;;;;;;5027403;28;20103;-65
2023/08/11 10:32:16;;;;;;;4.10;3.20;;;25.90;99.90;;;;;;5030193;28;20398;-65
2023/08/11 10:34:42;;;;;;;7.18;3.10;;;26.00;99.90;;;;;;5027371;28;20037;-64
2023/08/11 10:37:08;;;;;;;5.60;3.30;;;26.00;99.90;;;;;;5023492;28;20068;-64
2023/08/11 10:39:37;;;;;;;5.22;3.10;;;26.00;99.90;;;;;;5026016;28;20377;-64
2023/08/11 10:42:03;;;;;;;5.28;2.88;;;26.10;99.90;;;;;;5023495;28;20061;-64
2023/08/11 10:44:29;;;;;;;4.15;2.75;;;26.20;99.90;;;;;;5031442;28;20040;-64
2023/08/11 10:46:59;;;;;;;8.52;2.85;;;26.30;99.90;;;;;;5027685;28;20476;-64
2023/08/11 10:49:33;;;;;;;6.55;3.03;;;26.30;99.90;;;;;;5034452;28;20041;-64
2023/08/11 10:52:02;;;;;;;5.93;2.75;;;26.30;99.90;;;;;;5031268;28;20041;-64
2023/08/11 10:54:27;;;;;;;5.20;2.65;;;26.20;99.90;;;;;;5029403;28;20042;-64
2023/08/11 10:56:53;;;;;;;4.35;2.67;;;26.20;99.90;;;;;;5005021;28;20046;-64
2023/08/11 10:59:24;;;;;;;4.70;2.60;;;26.30;99.90;;;;;;5029543;28;20033;-65
2023/08/11 11:01:53;;;;;;;3.38;2.70;;;26.40;99.90;;;;;;5023006;28;20056;-65
2023/08/11 11:04:21;;;;;;;4.40;2.47;;;26.50;99.90;;;;;;5033722;28;20033;-64
2023/08/11 11:06:48;;;;;;;5.47;2.80;;;26.60;99.90;;;;;;5044120;28;20041;-64
2023/08/11 11:09:14;;;;;;;7.57;2.92;;;26.60;99.90;;;;;;4995045;28;20045;-64
2023/08/11 11:11:40;;;;;;;6.45;2.50;;;26.70;99.90;;;;;;5020042;28;20108;-64
2023/08/11 11:14:08;;;;;;;4.15;2.60;;;26.80;99.90;;;;;;5035326;28;20044;-65
2023/08/11 11:16:34;;;;;;;5.47;2.60;;;26.90;99.90;;;;;;5020073;28;20034;-64
2023/08/11 11:19:01;;;;;;;4.53;2.63;;;27.00;99.90;;;;;;5037470;28;20041;-64
2023/08/11 11:21:27;;;;;;;4.55;2.03;;;27.00;99.90;;;;;;5025180;28;20475;-64
2023/08/11 11:23:53;;;;;;;3.13;2.03;;;27.00;99.90;;;;;;5023977;28;20041;-64
2023/08/11 11:26:32;;;;;;;3.38;2.13;;;27.20;99.90;;;;;;5030860;28;20252;-64
2023/08/11 11:29:00;;;;;;;4.53;2.88;;;27.20;99.50;;;;;;5024432;28;20099;-64
2023/08/11 11:31:28;;;;;;;3.88;2.30;;;27.30;99.90;;;;;;5032153;28;20072;-65
2023/08/11 11:33:54;;;;;;;5.35;2.80;;;27.40;99.90;;;;;;5036007;28;20036;-64
2023/08/11 11:36:22;;;;;;;3.50;2.13;;;27.50;99.80;;;;;;5038441;28;20057;-64
2023/08/11 11:38:48;;;;;;;4.82;2.58;;;27.50;99.70;;;;;;5029185;28;20083;-64
2023/08/11 11:41:18;;;;;;;4.07;2.30;;;27.50;99.20;;;;;;5023001;28;20494;-65
2023/08/11 11:43:46;;;;;;;4.00;2.20;;;27.60;99.10;;;;;;5029487;28;20066;-65
2023/08/11 11:46:16;;;;;;;2.70;2.10;;;27.60;99.40;;;;;;5027796;28;20049;-64
2023/08/11 11:48:43;;;;;;;3.60;2.03;;;27.50;97.50;;;;;;5031268;28;20410;-64
2023/08/11 11:51:09;;;;;;;6.40;2.50;;;27.30;97.00;;;;;;5025829;28;20511;-64
2023/08/11 11:53:35;;;;;;;5.75;2.83;;;27.30;96.90;;;;;;5026066;28;20558;-64
2023/08/11 11:56:03;;;;;;;3.85;2.10;;;27.40;98.10;;;;;;5028048;28;20045;-64
2023/08/11 11:58:28;;;;;;;4.28;2.13;;;27.50;98.70;;;;;;5035913;28;20044;-64
2023/08/11 12:00:55;;;;;;;4.68;2.50;;;27.60;97.80;;;;;;5043025;28;20037;-64
2023/08/11 12:03:22;;;;;;;3.55;2.60;;;27.60;96.90;;;;;;5044357;28;20103;-64
2023/08/11 12:05:47;;;;;;;5.85;2.47;;;27.70;96.20;;;;;;5029378;28;20037;-64
2023/08/11 12:08:23;;;;;;;4.68;2.53;;;27.70;96.20;;;;;;5022471;28;20044;-64
2023/08/11 12:10:49;;;;;;;2.75;2.13;;;27.70;96.50;;;;;;5019539;28;20108;-65
2023/08/11 12:13:16;;;;;;;3.47;2.22;;;27.70;96.60;;;;;;5016925;28;20096;-65
2023/08/11 12:15:43;;;;;;;3.95;2.47;;;27.80;97.00;;;;;;5031525;28;20037;-65
2023/08/11 12:18:10;;;;;;;2.33;2.03;;;27.80;96.40;;;;;;5031010;28;20049;-65
2023/08/11 12:20:36;;;;;;;4.10;2.60;;;27.80;95.80;;;;;;5029508;28;20061;-65
2023/08/11 12:23:02;;;;;;;3.40;2.80;;;27.80;95.90;;;;;;5025394;28;20131;-65
2023/08/11 12:25:28;;;;;;;2.90;2.13;;;27.80;95.80;;;;;;5052908;22;20098;-66
2023/08/11 12:27:53;;;;;;;5.95;2.55;;;27.70;96.00;;;;;;5088007;28;20040;-66
2023/08/11 12:30:19;;;;;;;6.68;2.50;;;27.70;96.10;;;;;;5085158;28;20055;-66
2023/08/11 12:32:45;;;;;;;5.13;2.83;;;27.80;96.80;;;;;;5089542;28;20048;-65
2023/08/11 12:35:11;;;;;;;4.70;2.55;;;27.80;96.80;;;;;;5085342;28;20393;-65
2023/08/11 12:37:37;;;;;;;3.30;2.30;;;27.80;97.40;;;;;;5091780;28;20035;-65
2023/08/11 12:40:03;;;;;;;3.67;2.53;;;27.90;96.90;;;;;;5091454;28;20044;-66